Goodell, Iowa
Current Conditions -  °F | °C
As of 3:15 AM on Thursday 27 Nov 2014 (Local Time) from KCAV Reporting Station
Clear Clear  
Wind Chill: -19°   Ceiling: Unl
Heat Index:   Visibility: 10mi
Dew Point: -4°   Wind: 17mph
Humidity: 78%   Direction: 330°NNW
Pressure: 30.43"   Gusts: NA
Location:  42.92°N, 93.62°W
Report Text: KCAV 270915Z AUTO 33015KT 10SM CLR M17/M20 A3043 RMK AO2
Loading
Personal Weather Stations






























Interactive Weather Map New forecast layout! Learn more

10-Day Weather Forecast

Advertisements
Track Severe Weather on mobile